Wilson Cadiz — 8PSY — position and weather

sailwx.info

Track history (hours):
 
Tides and Currents Weather Stations Pressure Air Temp Water Temp Dewpoint Dewpoint Depression Visibility Wind Speed Wind Dir Waves Ship Positions

Wilson Cadiz

Last reported at 2015-Jan-29 05:16 UTC. Time now 2015-Feb-27 00:30 UTC.
Position N 53°32' E 014°38'.
Warning: this ship's position is 28 days out of date.

Length 100 m; draft 3.7 m.

Type: Ship. MMSI: 314216000.

Date/timePositionNaut miles runAvg speedWind from/ knotsBaromVisibWave heightAir tempDewpointWater temp
2015-Jan-29 05:16N 53°32' E 014°38'7 9.6
2015-Jan-29 04:33N 53°38' E 014°34'1111.0
2015-Jan-29 03:33N 53°47' E 014°23'9 8.6
2015-Jan-29 02:34N 53°54' E 014°15'8 7.6
2015-Jan-29 01:33N 54°02' E 014°14'9 9.2
2015-Jan-29 00:33N 54°11' E 014°11'9 8.8
2015-Jan-28 23:33N 54°18' E 014°02'6 5.8
2015-Jan-28 22:33N 54°22' E 013°55'5 4.7
2015-Jan-28 21:33N 54°26' E 013°52'6 5.6
2015-Jan-28 20:33N 54°31' E 013°47'7 6.8
2015-Jan-28 19:33N 54°37' E 013°41'8 7.6
2015-Jan-28 18:33N 54°44' E 013°34'7 7.4
2015-Jan-28 17:33N 54°50' E 013°28'30 9.0
2015-Jan-28 14:13N 55°13' E 012°55'710.3
2015-Jan-28 13:33N 55°16' E 012°44'8 8.3
2015-Jan-28 12:33N 55°24' E 012°40'1010.0
2015-Jan-28 11:33N 55°34' E 012°42'10 9.9
2015-Jan-28 10:33N 55°44' E 012°41'1110.6
2015-Jan-28 09:33N 55°55' E 012°38'10 9.7
2015-Jan-28 08:33N 56°04' E 012°36'10 9.6
2015-Jan-28 07:33N 56°10' E 012°22'1111.3
2015-Jan-28 06:33N 56°15' E 012°05'68 6.7
2015-Jan-27 20:21N 56°28' E 010°04'0 0.0
2015-Jan-27 19:33N 56°28' E 010°04'0 0.0
2015-Jan-27 18:33N 56°28' E 010°04'0 0.0
2015-Jan-27 17:27N 56°28' E 010°04'0 0.0
2015-Jan-27 16:33N 56°28' E 010°04'0 0.0
2015-Jan-27 15:12N 56°28' E 010°04'0 0.0
2015-Jan-27 12:15N 56°28' E 010°04'3 0.1
2015-Jan-26 09:19N 56°28' E 010°09'6 5.4
2015-Jan-26 08:11N 56°33' E 010°14'39 2.3
2015-Jan-25 15:09N 57°08' E 010°46'1710.4
2015-Jan-25 13:31N 57°25' E 010°43'1010.5
2015-Jan-25 12:31N 57°35' E 010°44'1010.3
2015-Jan-25 11:34N 57°45' E 010°45'1110.9
2015-Jan-25 10:32N 57°47' E 010°24'12810.6
2015-Jan-24 22:33N 58°02' E 006°26'10 9.7
2015-Jan-24 21:33N 58°08' E 006°11'8 8.2
2015-Jan-24 20:33N 58°13' E 005°59'9 9.1
2015-Jan-24 19:33N 58°19' E 005°46'10 9.9
2015-Jan-24 18:32N 58°26' E 005°32'20 9.5
2015-Jan-24 16:29N 58°43' E 005°13'9 9.8
2015-Jan-24 15:33N 58°51' E 005°05'  
2015-Jan-21 06:16N 66°17' E 012°09'710.0
2015-Jan-21 05:33N 66°15' E 012°27'1110.6
2015-Jan-21 04:33N 66°20' E 012°50'10 9.8
2015-Jan-21 03:33N 66°29' E 012°59'19 9.4
2015-Jan-21 01:30N 66°47' E 013°18'  
Track history (hours):
 
Tides and Currents Weather Stations Pressure Air Temp Water Temp Dewpoint Dewpoint Depression Visibility Wind Speed Wind Dir Waves Ship Positions

Wilson Cadiz

Last reported at 2015-Jan-29 05:16 UTC. Time now 2015-Feb-27 00:30 UTC.
Position N 53°32' E 014°38'.
Warning: this ship's position is 28 days out of date.

Length 100 m; draft 3.7 m.

Type: Ship. MMSI: 314216000.

Date/timePositionNaut miles runAvg speedWind from/ knotsBaromVisibWave heightAir tempDewpointWater temp
2015-Jan-29 05:16N 53°32' E 014°38'7 9.6
2015-Jan-29 04:33N 53°38' E 014°34'1111.0
2015-Jan-29 03:33N 53°47' E 014°23'9 8.6
2015-Jan-29 02:34N 53°54' E 014°15'8 7.6
2015-Jan-29 01:33N 54°02' E 014°14'9 9.2
2015-Jan-29 00:33N 54°11' E 014°11'9 8.8
2015-Jan-28 23:33N 54°18' E 014°02'6 5.8
2015-Jan-28 22:33N 54°22' E 013°55'5 4.7
2015-Jan-28 21:33N 54°26' E 013°52'6 5.6
2015-Jan-28 20:33N 54°31' E 013°47'7 6.8
2015-Jan-28 19:33N 54°37' E 013°41'8 7.6
2015-Jan-28 18:33N 54°44' E 013°34'7 7.4
2015-Jan-28 17:33N 54°50' E 013°28'30 9.0
2015-Jan-28 14:13N 55°13' E 012°55'710.3
2015-Jan-28 13:33N 55°16' E 012°44'8 8.3
2015-Jan-28 12:33N 55°24' E 012°40'1010.0
2015-Jan-28 11:33N 55°34' E 012°42'10 9.9
2015-Jan-28 10:33N 55°44' E 012°41'1110.6
2015-Jan-28 09:33N 55°55' E 012°38'10 9.7
2015-Jan-28 08:33N 56°04' E 012°36'10 9.6
2015-Jan-28 07:33N 56°10' E 012°22'1111.3
2015-Jan-28 06:33N 56°15' E 012°05'68 6.7
2015-Jan-27 20:21N 56°28' E 010°04'0 0.0
2015-Jan-27 19:33N 56°28' E 010°04'0 0.0
2015-Jan-27 18:33N 56°28' E 010°04'0 0.0
2015-Jan-27 17:27N 56°28' E 010°04'0 0.0
2015-Jan-27 16:33N 56°28' E 010°04'0 0.0
2015-Jan-27 15:12N 56°28' E 010°04'0 0.0
2015-Jan-27 12:15N 56°28' E 010°04'3 0.1
2015-Jan-26 09:19N 56°28' E 010°09'6 5.4
2015-Jan-26 08:11N 56°33' E 010°14'39 2.3
2015-Jan-25 15:09N 57°08' E 010°46'1710.4
2015-Jan-25 13:31N 57°25' E 010°43'1010.5
2015-Jan-25 12:31N 57°35' E 010°44'1010.3
2015-Jan-25 11:34N 57°45' E 010°45'1110.9
2015-Jan-25 10:32N 57°47' E 010°24'12810.6
2015-Jan-24 22:33N 58°02' E 006°26'10 9.7
2015-Jan-24 21:33N 58°08' E 006°11'8 8.2
2015-Jan-24 20:33N 58°13' E 005°59'9 9.1
2015-Jan-24 19:33N 58°19' E 005°46'10 9.9
2015-Jan-24 18:32N 58°26' E 005°32'20 9.5
2015-Jan-24 16:29N 58°43' E 005°13'9 9.8
2015-Jan-24 15:33N 58°51' E 005°05'  
2015-Jan-21 06:16N 66°17' E 012°09'710.0
2015-Jan-21 05:33N 66°15' E 012°27'1110.6
2015-Jan-21 04:33N 66°20' E 012°50'10 9.8
2015-Jan-21 03:33N 66°29' E 012°59'19 9.4
2015-Jan-21 01:30N 66°47' E 013°18'  

Dump ship's entire track history